sensor_id;sensor_type;location;lat;lon;timestamp;pressure;altitude;pressure_sealevel;temperature;humidity
10261;BME280;5175;42.606;23.388;2023-02-11T00:00:52;95347.13;;;-5.16;86.03
10261;BME280;5175;42.606;23.388;2023-02-11T00:03:18;95353.25;;;-5.08;86.14
10261;BME280;5175;42.606;23.388;2023-02-11T00:05:45;95353.38;;;-4.82;84.04
10261;BME280;5175;42.606;23.388;2023-02-11T00:08:23;95353.47;;;-4.74;83.47
10261;BME280;5175;42.606;23.388;2023-02-11T00:10:51;95348.53;;;-4.77;82.79
10261;BME280;5175;42.606;23.388;2023-02-11T00:13:18;95357.75;;;-4.65;82.92
10261;BME280;5175;42.606;23.388;2023-02-11T00:15:45;95355.91;;;-4.72;83.01
10261;BME280;5175;42.606;23.388;2023-02-11T00:18:11;95360.09;;;-5.07;83.43
10261;BME280;5175;42.606;23.388;2023-02-11T00:20:38;95339.75;;;-4.93;83.31
10261;BME280;5175;42.606;23.388;2023-02-11T00:23:06;95348.59;;;-4.86;83.79
10261;BME280;5175;42.606;23.388;2023-02-11T00:25:37;95350.16;;;-4.93;83.81
10261;BME280;5175;42.606;23.388;2023-02-11T00:28:04;95347.50;;;-4.84;83.32
10261;BME280;5175;42.606;23.388;2023-02-11T00:30:31;95353.91;;;-5.06;83.23
10261;BME280;5175;42.606;23.388;2023-02-11T00:32:58;95355.66;;;-4.96;82.89
10261;BME280;5175;42.606;23.388;2023-02-11T00:35:25;95347.94;;;-4.88;81.54
10261;BME280;5175;42.606;23.388;2023-02-11T00:37:52;95358.63;;;-4.91;81.04
10261;BME280;5175;42.606;23.388;2023-02-11T00:40:19;95356.72;;;-5.17;81.13
10261;BME280;5175;42.606;23.388;2023-02-11T00:42:47;95353.69;;;-5.12;81.59
10261;BME280;5175;42.606;23.388;2023-02-11T00:45:14;95343.47;;;-5.23;81.36
10261;BME280;5175;42.606;23.388;2023-02-11T00:47:40;95343.72;;;-5.17;80.74
10261;BME280;5175;42.606;23.388;2023-02-11T00:50:07;95348.84;;;-5.07;80.36
10261;BME280;5175;42.606;23.388;2023-02-11T00:52:34;95348.91;;;-5.17;84.51
10261;BME280;5175;42.606;23.388;2023-02-11T00:55:01;95342.44;;;-5.40;82.95
10261;BME280;5175;42.606;23.388;2023-02-11T00:57:28;95345.56;;;-5.36;81.73
10261;BME280;5175;42.606;23.388;2023-02-11T00:59:56;95337.63;;;-5.35;80.70
10261;BME280;5175;42.606;23.388;2023-02-11T01:02:23;95319.22;;;-5.51;80.82
10261;BME280;5175;42.606;23.388;2023-02-11T01:04:49;95333.16;;;-5.42;80.78
10261;BME280;5175;42.606;23.388;2023-02-11T01:07:16;95335.38;;;-5.57;81.67
10261;BME280;5175;42.606;23.388;2023-02-11T01:09:43;95339.97;;;-5.41;80.74
10261;BME280;5175;42.606;23.388;2023-02-11T01:12:10;95345.78;;;-5.20;78.19
10261;BME280;5175;42.606;23.388;2023-02-11T01:14:36;95328.78;;;-5.51;77.35
10261;BME280;5175;42.606;23.388;2023-02-11T01:17:05;95337.16;;;-5.48;77.65
10261;BME280;5175;42.606;23.388;2023-02-11T01:19:31;95309.50;;;-5.49;78.02
10261;BME280;5175;42.606;23.388;2023-02-11T01:21:58;95321.53;;;-5.48;76.76
10261;BME280;5175;42.606;23.388;2023-02-11T01:24:25;95336.28;;;-5.39;76.58
10261;BME280;5175;42.606;23.388;2023-02-11T01:26:52;95326.56;;;-5.37;76.00
10261;BME280;5175;42.606;23.388;2023-02-11T01:29:18;95324.53;;;-5.43;76.15
10261;BME280;5175;42.606;23.388;2023-02-11T01:31:45;95329.44;;;-5.40;76.52
10261;BME280;5175;42.606;23.388;2023-02-11T01:34:14;95333.97;;;-5.42;75.84
10261;BME280;5175;42.606;23.388;2023-02-11T01:36:41;95320.38;;;-5.63;76.31
10261;BME280;5175;42.606;23.388;2023-02-11T01:39:08;95327.94;;;-5.79;77.82
10261;BME280;5175;42.606;23.388;2023-02-11T01:41:35;95316.28;;;-5.75;78.52
10261;BME280;5175;42.606;23.388;2023-02-11T01:44:26;95327.00;;;-5.78;79.63
10261;BME280;5175;42.606;23.388;2023-02-11T01:46:54;95313.38;;;-5.90;79.46
10261;BME280;5175;42.606;23.388;2023-02-11T01:49:26;95317.78;;;-6.00;80.94
10261;BME280;5175;42.606;23.388;2023-02-11T01:51:56;95316.59;;;-5.78;80.66
10261;BME280;5175;42.606;23.388;2023-02-11T01:54:28;95320.81;;;-5.67;80.13
10261;BME280;5175;42.606;23.388;2023-02-11T01:57:15;95321.88;;;-5.60;79.81
10261;BME280;5175;42.606;23.388;2023-02-11T02:00:06;95293.22;;;-5.78;79.27
10261;BME280;5175;42.606;23.388;2023-02-11T02:02:39;95319.28;;;-5.60;78.52
10261;BME280;5175;42.606;23.388;2023-02-11T02:05:19;95314.75;;;-5.95;80.94
10261;BME280;5175;42.606;23.388;2023-02-11T02:07:55;95312.47;;;-5.71;80.34
10261;BME280;5175;42.606;23.388;2023-02-11T02:10:27;95301.53;;;-6.11;81.05
10261;BME280;5175;42.606;23.388;2023-02-11T02:12:54;95314.69;;;-6.32;82.90
10261;BME280;5175;42.606;23.388;2023-02-11T02:15:24;95311.94;;;-6.21;82.06
10261;BME280;5175;42.606;23.388;2023-02-11T02:17:57;95288.50;;;-6.58;82.96
10261;BME280;5175;42.606;23.388;2023-02-11T02:20:58;95312.09;;;-6.51;83.21
10261;BME280;5175;42.606;23.388;2023-02-11T02:23:51;95317.44;;;-6.24;81.97
10261;BME280;5175;42.606;23.388;2023-02-11T02:26:41;95316.47;;;-6.32;81.84
10261;BME280;5175;42.606;23.388;2023-02-11T02:32:36;95304.72;;;-6.37;83.10
10261;BME280;5175;42.606;23.388;2023-02-11T02:35:12;95311.28;;;-6.32;83.16
10261;BME280;5175;42.606;23.388;2023-02-11T02:37:44;95298.72;;;-6.47;82.73
10261;BME280;5175;42.606;23.388;2023-02-11T02:40:16;95310.44;;;-6.33;82.99
10261;BME280;5175;42.606;23.388;2023-02-11T02:42:46;95309.50;;;-6.22;82.73
10261;BME280;5175;42.606;23.388;2023-02-11T02:45:13;95304.56;;;-6.25;83.00
10261;BME280;5175;42.606;23.388;2023-02-11T02:47:42;95307.00;;;-6.14;82.57
10261;BME280;5175;42.606;23.388;2023-02-11T02:50:09;95307.56;;;-6.20;82.99
10261;BME280;5175;42.606;23.388;2023-02-11T02:52:44;95295.03;;;-6.34;82.30
10261;BME280;5175;42.606;23.388;2023-02-11T02:55:27;95294.50;;;-6.67;84.64
10261;BME280;5175;42.606;23.388;2023-02-11T02:58:10;95290.91;;;-6.47;84.78
10261;BME280;5175;42.606;23.388;2023-02-11T03:00:43;95313.03;;;-6.23;83.43
10261;BME280;5175;42.606;23.388;2023-02-11T03:03:28;95313.75;;;-6.50;85.35
10261;BME280;5175;42.606;23.388;2023-02-11T03:06:00;95318.41;;;-6.34;86.39
10261;BME280;5175;42.606;23.388;2023-02-11T03:08:32;95317.41;;;-6.14;84.49
10261;BME280;5175;42.606;23.388;2023-02-11T03:11:01;95314.53;;;-6.11;82.37
10261;BME280;5175;42.606;23.388;2023-02-11T03:13:30;95291.63;;;-6.54;83.53
10261;BME280;5175;42.606;23.388;2023-02-11T03:16:01;95312.09;;;-6.22;83.30
10261;BME280;5175;42.606;23.388;2023-02-11T03:18:32;95313.03;;;-6.23;83.58
10261;BME280;5175;42.606;23.388;2023-02-11T03:21:01;95317.41;;;-6.14;83.44
10261;BME280;5175;42.606;23.388;2023-02-11T03:23:32;95313.44;;;-6.18;83.26
10261;BME280;5175;42.606;23.388;2023-02-11T03:26:05;95313.31;;;-6.26;82.98
10261;BME280;5175;42.606;23.388;2023-02-11T03:28:37;95310.19;;;-6.40;82.98
10261;BME280;5175;42.606;23.388;2023-02-11T03:31:12;95276.31;;;-6.57;82.72
10261;BME280;5175;42.606;23.388;2023-02-11T03:33:50;95301.59;;;-6.40;83.04
10261;BME280;5175;42.606;23.388;2023-02-11T03:36:22;95298.59;;;-6.45;83.29
10261;BME280;5175;42.606;23.388;2023-02-11T03:38:53;95299.66;;;-6.57;82.58
10261;BME280;5175;42.606;23.388;2023-02-11T03:41:23;95307.06;;;-6.91;86.04
10261;BME280;5175;42.606;23.388;2023-02-11T03:43:52;95303.94;;;-6.75;86.13
10261;BME280;5175;42.606;23.388;2023-02-11T03:46:23;95301.19;;;-6.74;85.25
10261;BME280;5175;42.606;23.388;2023-02-11T03:48:56;95304.31;;;-6.99;85.33
10261;BME280;5175;42.606;23.388;2023-02-11T03:51:26;95313.88;;;-7.00;85.54
10261;BME280;5175;42.606;23.388;2023-02-11T03:53:57;95304.44;;;-7.01;83.87
10261;BME280;5175;42.606;23.388;2023-02-11T03:56:27;95303.06;;;-7.14;84.77
10261;BME280;5175;42.606;23.388;2023-02-11T03:58:55;95298.69;;;-7.23;85.96
10261;BME280;5175;42.606;23.388;2023-02-11T04:01:22;95278.75;;;-7.23;86.12
10261;BME280;5175;42.606;23.388;2023-02-11T04:03:49;95273.06;;;-6.97;84.39
10261;BME280;5175;42.606;23.388;2023-02-11T04:06:17;95290.66;;;-6.82;83.61
10261;BME280;5175;42.606;23.388;2023-02-11T04:08:44;95280.44;;;-6.74;82.59
10261;BME280;5175;42.606;23.388;2023-02-11T04:11:10;95289.88;;;-6.73;83.21
10261;BME280;5175;42.606;23.388;2023-02-11T04:13:37;95301.03;;;-6.72;83.29
10261;BME280;5175;42.606;23.388;2023-02-11T04:16:04;95292.19;;;-6.79;83.32
10261;BME280;5175;42.606;23.388;2023-02-11T04:18:31;95297.50;;;-6.81;82.21
10261;BME280;5175;42.606;23.388;2023-02-11T04:20:57;95288.75;;;-6.89;82.56
10261;BME280;5175;42.606;23.388;2023-02-11T04:23:26;95302.44;;;-6.78;82.47
10261;BME280;5175;42.606;23.388;2023-02-11T04:25:53;95292.84;;;-6.58;82.04
10261;BME280;5175;42.606;23.388;2023-02-11T04:28:20;95288.38;;;-6.75;89.44
10261;BME280;5175;42.606;23.388;2023-02-11T04:30:48;95299.81;;;-6.97;85.26
10261;BME280;5175;42.606;23.388;2023-02-11T04:33:14;95282.28;;;-7.24;84.64
10261;BME280;5175;42.606;23.388;2023-02-11T04:35:41;95300.91;;;-7.00;83.73
10261;BME280;5175;42.606;23.388;2023-02-11T04:38:08;95297.19;;;-7.26;84.85
10261;BME280;5175;42.606;23.388;2023-02-11T04:40:36;95290.22;;;-7.25;85.27
10261;BME280;5175;42.606;23.388;2023-02-11T04:43:03;95291.16;;;-7.26;85.15
10261;BME280;5175;42.606;23.388;2023-02-11T04:45:30;95292.25;;;-7.38;87.48
10261;BME280;5175;42.606;23.388;2023-02-11T04:47:57;95289.13;;;-7.23;86.16
10261;BME280;5175;42.606;23.388;2023-02-11T04:50:24;95278.34;;;-7.28;85.96
10261;BME280;5175;42.606;23.388;2023-02-11T04:52:51;95260.28;;;-7.58;87.13
10261;BME280;5175;42.606;23.388;2023-02-11T04:55:17;95287.63;;;-7.35;87.22
10261;BME280;5175;42.606;23.388;2023-02-11T04:57:46;95284.50;;;-7.19;85.42
10261;BME280;5175;42.606;23.388;2023-02-11T05:00:13;95280.53;;;-7.14;85.54
10261;BME280;5175;42.606;23.388;2023-02-11T05:02:40;95284.53;;;-7.10;85.44
10261;BME280;5175;42.606;23.388;2023-02-11T05:05:07;95267.81;;;-7.36;86.12
10261;BME280;5175;42.606;23.388;2023-02-11T05:07:34;95280.13;;;-7.19;85.93
10261;BME280;5175;42.606;23.388;2023-02-11T05:10:00;95263.22;;;-7.13;84.29
10261;BME280;5175;42.606;23.388;2023-02-11T05:12:28;95255.97;;;-7.29;83.72
10261;BME280;5175;42.606;23.388;2023-02-11T05:14:56;95274.25;;;-7.21;83.54
10261;BME280;5175;42.606;23.388;2023-02-11T05:17:22;95269.38;;;-7.14;83.65
10261;BME280;5175;42.606;23.388;2023-02-11T05:19:49;95263.63;;;-7.08;82.37
10261;BME280;5175;42.606;23.388;2023-02-11T05:22:16;95261.69;;;-7.25;82.37
10261;BME280;5175;42.606;23.388;2023-02-11T05:24:42;95267.56;;;-7.23;82.54
10261;BME280;5175;42.606;23.388;2023-02-11T05:27:09;95264.03;;;-7.32;83.55
10261;BME280;5175;42.606;23.388;2023-02-11T05:29:36;95262.78;;;-7.18;83.94
10261;BME280;5175;42.606;23.388;2023-02-11T05:32:05;95262.53;;;-7.06;83.03
10261;BME280;5175;42.606;23.388;2023-02-11T05:34:33;95254.63;;;-6.94;82.62
10261;BME280;5175;42.606;23.388;2023-02-11T05:37:00;95259.00;;;-7.05;82.46
10261;BME280;5175;42.606;23.388;2023-02-11T05:39:27;95275.13;;;-6.91;81.60
10261;BME280;5175;42.606;23.388;2023-02-11T05:41:53;95268.69;;;-6.87;80.95
10261;BME280;5175;42.606;23.388;2023-02-11T05:44:20;95268.56;;;-6.86;80.83
10261;BME280;5175;42.606;23.388;2023-02-11T05:46:48;95246.84;;;-7.04;80.74
10261;BME280;5175;42.606;23.388;2023-02-11T05:49:16;95270.19;;;-7.04;82.31
10261;BME280;5175;42.606;23.388;2023-02-11T05:51:43;95279.63;;;-6.93;81.08
10261;BME280;5175;42.606;23.388;2023-02-11T05:54:10;95274.28;;;-7.02;81.97
10261;BME280;5175;42.606;23.388;2023-02-11T05:56:37;95272.09;;;-6.87;81.12
10261;BME280;5175;42.606;23.388;2023-02-11T05:59:04;95267.34;;;-7.01;81.13
10261;BME280;5175;42.606;23.388;2023-02-11T06:01:30;95274.41;;;-7.03;81.41
10261;BME280;5175;42.606;23.388;2023-02-11T06:03:57;95265.81;;;-6.84;80.21
10261;BME280;5175;42.606;23.388;2023-02-11T06:06:26;95257.91;;;-6.92;79.59
10261;BME280;5175;42.606;23.388;2023-02-11T06:08:52;95279.75;;;-6.66;80.05
10261;BME280;5175;42.606;23.388;2023-02-11T06:11:19;95284.41;;;-6.89;81.07
10261;BME280;5175;42.606;23.388;2023-02-11T06:13:46;95284.28;;;-6.78;81.15
10261;BME280;5175;42.606;23.388;2023-02-11T06:16:13;95280.84;;;-6.69;81.15
10261;BME280;5175;42.606;23.388;2023-02-11T06:18:39;95277.84;;;-6.64;80.03
10261;BME280;5175;42.606;23.388;2023-02-11T06:21:07;95283.69;;;-6.62;81.15
10261;BME280;5175;42.606;23.388;2023-02-11T06:23:35;95293.41;;;-6.45;80.79
10261;BME280;5175;42.606;23.388;2023-02-11T06:26:03;95288.97;;;-6.25;80.95
10261;BME280;5175;42.606;23.388;2023-02-11T06:28:31;95243.63;;;-6.31;79.07
10261;BME280;5175;42.606;23.388;2023-02-11T06:30:58;95289.75;;;-5.96;79.47
10261;BME280;5175;42.606;23.388;2023-02-11T06:33:30;95288.97;;;-5.79;78.95
10261;BME280;5175;42.606;23.388;2023-02-11T06:35:57;95280.72;;;-5.65;78.22
10261;BME280;5175;42.606;23.388;2023-02-11T06:38:24;95277.13;;;-5.64;78.09
10261;BME280;5175;42.606;23.388;2023-02-11T06:40:52;95279.41;;;-5.24;76.89
10261;BME280;5175;42.606;23.388;2023-02-11T06:43:19;95281.78;;;-5.13;77.03
10261;BME280;5175;42.606;23.388;2023-02-11T06:45:51;95271.78;;;-4.90;76.34
10261;BME280;5175;42.606;23.388;2023-02-11T06:48:18;95288.59;;;-4.67;75.24
10261;BME280;5175;42.606;23.388;2023-02-11T06:50:45;95292.00;;;-4.49;73.35
10261;BME280;5175;42.606;23.388;2023-02-11T06:53:11;95290.81;;;-4.37;73.12
10261;BME280;5175;42.606;23.388;2023-02-11T06:55:38;95296.50;;;-4.16;72.60
10261;BME280;5175;42.606;23.388;2023-02-11T06:58:06;95273.22;;;-4.17;72.50
10261;BME280;5175;42.606;23.388;2023-02-11T07:00:33;95303.97;;;-3.95;72.18
10261;BME280;5175;42.606;23.388;2023-02-11T07:03:00;95299.75;;;-3.70;70.64
10261;BME280;5175;42.606;23.388;2023-02-11T07:05:26;95298.56;;;-3.50;69.39
10261;BME280;5175;42.606;23.388;2023-02-11T07:07:53;95303.19;;;-3.28;68.79
10261;BME280;5175;42.606;23.388;2023-02-11T07:10:20;95305.06;;;-3.12;67.50
10261;BME280;5175;42.606;23.388;2023-02-11T07:12:47;95311.81;;;-2.94;66.70
10261;BME280;5175;42.606;23.388;2023-02-11T07:15:15;95304.00;;;-2.86;65.75
10261;BME280;5175;42.606;23.388;2023-02-11T07:17:42;95299.81;;;-2.71;64.87
10261;BME280;5175;42.606;23.388;2023-02-11T07:20:09;95295.88;;;-2.67;65.58
10261;BME280;5175;42.606;23.388;2023-02-11T07:22:39;95299.81;;;-2.46;65.81
10261;BME280;5175;42.606;23.388;2023-02-11T07:25:06;95288.72;;;-2.40;66.09
10261;BME280;5175;42.606;23.388;2023-02-11T07:27:33;95289.22;;;-2.21;65.89
10261;BME280;5175;42.606;23.388;2023-02-11T07:29:59;95285.47;;;-2.02;63.46
10261;BME280;5175;42.606;23.388;2023-02-11T07:32:27;95283.47;;;-1.84;63.58
10261;BME280;5175;42.606;23.388;2023-02-11T07:34:54;95267.47;;;-1.89;63.27
10261;BME280;5175;42.606;23.388;2023-02-11T07:37:21;95276.06;;;-1.64;63.82
10261;BME280;5175;42.606;23.388;2023-02-11T07:39:47;95250.44;;;-1.77;63.32
10261;BME280;5175;42.606;23.388;2023-02-11T07:42:14;95276.22;;;-1.50;63.68
10261;BME280;5175;42.606;23.388;2023-02-11T07:44:41;95277.16;;;-1.43;64.20
10261;BME280;5175;42.606;23.388;2023-02-11T07:47:07;95262.13;;;-1.49;63.61
10261;BME280;5175;42.606;23.388;2023-02-11T07:49:35;95271.81;;;-1.10;62.68
10261;BME280;5175;42.606;23.388;2023-02-11T07:52:02;95273.41;;;-1.01;61.12
10261;BME280;5175;42.606;23.388;2023-02-11T07:54:29;95267.72;;;-0.82;61.26
10261;BME280;5175;42.606;23.388;2023-02-11T07:56:55;95272.47;;;-0.78;61.81
10261;BME280;5175;42.606;23.388;2023-02-11T07:59:23;95245.56;;;-1.02;60.45
10261;BME280;5175;42.606;23.388;2023-02-11T08:01:50;95264.63;;;-0.55;61.24
10261;BME280;5175;42.606;23.388;2023-02-11T08:04:16;95261.44;;;-0.42;62.89
10261;BME280;5175;42.606;23.388;2023-02-11T08:06:44;95264.31;;;-0.15;63.21
10261;BME280;5175;42.606;23.388;2023-02-11T08:09:14;95264.81;;;0.04;62.87
10261;BME280;5175;42.606;23.388;2023-02-11T08:11:42;95270.28;;;0.17;62.57
10261;BME280;5175;42.606;23.388;2023-02-11T08:14:09;95269.38;;;0.24;59.83
10261;BME280;5175;42.606;23.388;2023-02-11T08:16:36;95266.06;;;0.30;58.13
10261;BME280;5175;42.606;23.388;2023-02-11T08:19:10;95265.72;;;0.33;57.54
10261;BME280;5175;42.606;23.388;2023-02-11T08:21:38;95260.91;;;0.51;55.84
10261;BME280;5175;42.606;23.388;2023-02-11T08:24:07;95270.41;;;0.52;55.96
10261;BME280;5175;42.606;23.388;2023-02-11T08:26:35;95272.94;;;0.75;55.04
10261;BME280;5175;42.606;23.388;2023-02-11T08:29:05;95273.97;;;0.74;54.80
10261;BME280;5175;42.606;23.388;2023-02-11T08:31:35;95273.78;;;0.76;54.50
10261;BME280;5175;42.606;23.388;2023-02-11T08:34:02;95273.38;;;1.08;54.40
10261;BME280;5175;42.606;23.388;2023-02-11T08:36:31;95276.56;;;1.18;54.03
10261;BME280;5175;42.606;23.388;2023-02-11T08:38:59;95272.13;;;1.04;52.38
10261;BME280;5175;42.606;23.388;2023-02-11T08:41:29;95277.84;;;1.07;53.30
10261;BME280;5175;42.606;23.388;2023-02-11T08:43:56;95277.53;;;1.17;53.50
10261;BME280;5175;42.606;23.388;2023-02-11T08:46:22;95276.69;;;1.31;52.65
10261;BME280;5175;42.606;23.388;2023-02-11T08:48:49;95268.91;;;1.59;52.17
10261;BME280;5175;42.606;23.388;2023-02-11T08:51:17;95283.06;;;1.58;51.02
10261;BME280;5175;42.606;23.388;2023-02-11T08:53:45;95276.78;;;1.80;50.71
10261;BME280;5175;42.606;23.388;2023-02-11T08:56:12;95283.75;;;1.87;49.56
10261;BME280;5175;42.606;23.388;2023-02-11T08:58:41;95279.25;;;1.60;49.48
10261;BME280;5175;42.606;23.388;2023-02-11T09:01:09;95277.63;;;1.09;51.27
10261;BME280;5175;42.606;23.388;2023-02-11T09:03:36;95277.91;;;1.14;50.48
10261;BME280;5175;42.606;23.388;2023-02-11T09:06:04;95276.22;;;0.92;50.70
10261;BME280;5175;42.606;23.388;2023-02-11T09:08:33;95284.91;;;0.63;49.57
10261;BME280;5175;42.606;23.388;2023-02-11T09:11:00;95277.19;;;0.91;50.40
10261;BME280;5175;42.606;23.388;2023-02-11T09:13:27;95273.50;;;0.56;51.26
10261;BME280;5175;42.606;23.388;2023-02-11T09:15:55;95275.78;;;0.74;53.35
10261;BME280;5175;42.606;23.388;2023-02-11T09:18:22;95276.38;;;0.90;53.23
10261;BME280;5175;42.606;23.388;2023-02-11T09:20:48;95271.28;;;1.18;51.23
10261;BME280;5175;42.606;23.388;2023-02-11T09:23:15;95262.22;;;1.42;51.49
10261;BME280;5175;42.606;23.388;2023-02-11T09:25:42;95271.84;;;1.70;50.97
10261;BME280;5175;42.606;23.388;2023-02-11T09:28:09;95266.84;;;1.75;49.21
10261;BME280;5175;42.606;23.388;2023-02-11T09:30:36;95263.09;;;1.84;49.58
10261;BME280;5175;42.606;23.388;2023-02-11T09:33:04;95246.84;;;1.81;50.53
10261;BME280;5175;42.606;23.388;2023-02-11T09:35:31;95261.59;;;2.24;50.12
10261;BME280;5175;42.606;23.388;2023-02-11T09:37:58;95254.72;;;2.51;49.10
10261;BME280;5175;42.606;23.388;2023-02-11T09:40:25;95248.97;;;2.75;48.49
10261;BME280;5175;42.606;23.388;2023-02-11T09:42:56;95257.66;;;2.69;48.83
10261;BME280;5175;42.606;23.388;2023-02-11T09:45:29;95243.47;;;2.70;48.26
10261;BME280;5175;42.606;23.388;2023-02-11T09:47:59;95232.06;;;2.57;49.70
10261;BME280;5175;42.606;23.388;2023-02-11T09:50:31;95233.44;;;2.52;49.19
10261;BME280;5175;42.606;23.388;2023-02-11T09:53:01;95235.00;;;2.47;49.59
10261;BME280;5175;42.606;23.388;2023-02-11T09:55:30;95238.91;;;2.51;49.53
10261;BME280;5175;42.606;23.388;2023-02-11T09:58:01;95222.06;;;2.80;48.99
10261;BME280;5175;42.606;23.388;2023-02-11T10:00:32;95216.94;;;3.19;48.08
10261;BME280;5175;42.606;23.388;2023-02-11T10:03:30;95213.63;;;3.04;47.93
10261;BME280;5175;42.606;23.388;2023-02-11T10:06:24;95211.53;;;3.47;47.68
10261;BME280;5175;42.606;23.388;2023-02-11T10:09:02;95216.47;;;3.69;46.76
10261;BME280;5175;42.606;23.388;2023-02-11T10:11:37;95201.25;;;3.04;46.72
10261;BME280;5175;42.606;23.388;2023-02-11T10:14:20;95199.50;;;3.18;47.07
10261;BME280;5175;42.606;23.388;2023-02-11T10:17:00;95197.94;;;3.43;46.86
10261;BME280;5175;42.606;23.388;2023-02-11T10:19:41;95191.22;;;3.41;46.80
10261;BME280;5175;42.606;23.388;2023-02-11T10:22:17;95182.78;;;3.85;45.67
10261;BME280;5175;42.606;23.388;2023-02-11T10:24:50;95179.22;;;3.32;46.42
10261;BME280;5175;42.606;23.388;2023-02-11T10:27:20;95181.72;;;3.46;46.81
10261;BME280;5175;42.606;23.388;2023-02-11T10:29:52;95163.88;;;3.74;45.74
10261;BME280;5175;42.606;23.388;2023-02-11T10:32:30;95168.31;;;3.41;46.10
10261;BME280;5175;42.606;23.388;2023-02-11T10:35:01;95154.25;;;3.21;45.94
10261;BME280;5175;42.606;23.388;2023-02-11T10:37:30;95139.84;;;3.10;48.20
10261;BME280;5175;42.606;23.388;2023-02-11T10:39:56;95123.75;;;2.86;48.41
10261;BME280;5175;42.606;23.388;2023-02-11T10:42:23;95126.44;;;3.12;47.60
10261;BME280;5175;42.606;23.388;2023-02-11T10:44:56;95117.38;;;3.41;46.76
10261;BME280;5175;42.606;23.388;2023-02-11T10:47:26;95121.63;;;3.48;46.94
10261;BME280;5175;42.606;23.388;2023-02-11T10:49:55;95111.47;;;3.45;46.73
10261;BME280;5175;42.606;23.388;2023-02-11T10:52:29;95107.00;;;3.92;45.62
10261;BME280;5175;42.606;23.388;2023-02-11T10:54:59;95098.09;;;3.93;45.52
10261;BME280;5175;42.606;23.388;2023-02-11T10:57:29;95100.50;;;4.07;45.17
10261;BME280;5175;42.606;23.388;2023-02-11T10:59:58;95096.88;;;3.69;45.05
10261;BME280;5175;42.606;23.388;2023-02-11T11:02:28;95085.28;;;3.90;44.19
10261;BME280;5175;42.606;23.388;2023-02-11T11:05:00;95094.19;;;4.02;44.93
10261;BME280;5175;42.606;23.388;2023-02-11T11:07:28;95088.75;;;3.70;44.24
10261;BME280;5175;42.606;23.388;2023-02-11T11:10:00;95089.13;;;4.13;43.13
10261;BME280;5175;42.606;23.388;2023-02-11T11:12:36;95086.16;;;4.54;42.85
10261;BME280;5175;42.606;23.388;2023-02-11T11:15:18;95090.75;;;4.08;42.59
10261;BME280;5175;42.606;23.388;2023-02-11T11:17:46;95090.28;;;4.30;42.44
10261;BME280;5175;42.606;23.388;2023-02-11T11:20:19;95082.69;;;4.54;42.81
10261;BME280;5175;42.606;23.388;2023-02-11T11:22:48;95075.25;;;4.82;42.04
10261;BME280;5175;42.606;23.388;2023-02-11T11:25:25;95076.69;;;4.20;42.47
10261;BME280;5175;42.606;23.388;2023-02-11T11:27:54;95066.88;;;4.40;42.54
10261;BME280;5175;42.606;23.388;2023-02-11T11:30:24;95078.22;;;4.54;41.76
10261;BME280;5175;42.606;23.388;2023-02-11T11:32:53;95072.41;;;4.77;41.58
10261;BME280;5175;42.606;23.388;2023-02-11T11:35:24;95074.13;;;4.65;42.15
10261;BME280;5175;42.606;23.388;2023-02-11T11:37:56;95071.84;;;4.75;41.24
10261;BME280;5175;42.606;23.388;2023-02-11T11:40:26;95066.38;;;5.01;41.53
10261;BME280;5175;42.606;23.388;2023-02-11T11:43:16;95060.94;;;5.27;40.32
10261;BME280;5175;42.606;23.388;2023-02-11T11:45:54;95030.16;;;5.01;40.22
10261;BME280;5175;42.606;23.388;2023-02-11T11:48:24;95056.56;;;5.39;40.29
10261;BME280;5175;42.606;23.388;2023-02-11T11:50:54;95050.03;;;5.42;39.91
10261;BME280;5175;42.606;23.388;2023-02-11T11:53:26;95047.31;;;5.73;39.55
10261;BME280;5175;42.606;23.388;2023-02-11T11:56:02;95042.69;;;5.68;39.66
10261;BME280;5175;42.606;23.388;2023-02-11T11:58:31;95038.00;;;5.46;40.52
10261;BME280;5175;42.606;23.388;2023-02-11T12:01:09;95028.91;;;5.60;40.42
10261;BME280;5175;42.606;23.388;2023-02-11T12:04:09;95031.97;;;5.07;40.79
10261;BME280;5175;42.606;23.388;2023-02-11T12:06:46;95025.44;;;5.35;40.54
10261;BME280;5175;42.606;23.388;2023-02-11T12:09:23;95022.78;;;5.41;40.84
10261;BME280;5175;42.606;23.388;2023-02-11T12:12:10;95017.41;;;5.23;40.25
10261;BME280;5175;42.606;23.388;2023-02-11T12:14:50;95013.31;;;5.52;39.80
10261;BME280;5175;42.606;23.388;2023-02-11T12:17:32;95017.03;;;5.69;40.73
10261;BME280;5175;42.606;23.388;2023-02-11T12:20:19;95007.97;;;6.01;40.56
10261;BME280;5175;42.606;23.388;2023-02-11T12:23:01;95013.56;;;5.19;40.23
10261;BME280;5175;42.606;23.388;2023-02-11T12:25:35;95011.28;;;4.67;41.43
10261;BME280;5175;42.606;23.388;2023-02-11T12:28:17;94998.69;;;4.62;42.67
10261;BME280;5175;42.606;23.388;2023-02-11T12:30:55;94979.06;;;4.76;42.76
10261;BME280;5175;42.606;23.388;2023-02-11T12:33:42;94986.19;;;5.32;41.08
10261;BME280;5175;42.606;23.388;2023-02-11T12:36:24;94975.53;;;5.63;42.81
10261;BME280;5175;42.606;23.388;2023-02-11T12:39:04;94978.38;;;5.86;40.69
10261;BME280;5175;42.606;23.388;2023-02-11T12:41:46;94973.75;;;6.18;40.59
10261;BME280;5175;42.606;23.388;2023-02-11T12:44:41;94975.88;;;6.27;39.48
10261;BME280;5175;42.606;23.388;2023-02-11T12:47:17;94976.28;;;6.43;40.08
10261;BME280;5175;42.606;23.388;2023-02-11T12:49:55;94977.47;;;6.76;38.63
10261;BME280;5175;42.606;23.388;2023-02-11T12:52:36;94976.97;;;6.68;38.15
10261;BME280;5175;42.606;23.388;2023-02-11T12:55:13;94970.03;;;6.37;38.97
10261;BME280;5175;42.606;23.388;2023-02-11T12:57:45;94973.53;;;6.67;39.41
10261;BME280;5175;42.606;23.388;2023-02-11T13:00:16;94970.16;;;6.90;37.72
10261;BME280;5175;42.606;23.388;2023-02-11T13:02:49;94952.44;;;7.14;40.00
10261;BME280;5175;42.606;23.388;2023-02-11T13:05:25;94953.59;;;7.18;38.62
10261;BME280;5175;42.606;23.388;2023-02-11T13:07:57;94964.94;;;7.36;37.11
10261;BME280;5175;42.606;23.388;2023-02-11T13:10:31;94952.34;;;7.43;38.06
10261;BME280;5175;42.606;23.388;2023-02-11T13:12:59;94956.31;;;6.58;35.81
10261;BME280;5175;42.606;23.388;2023-02-11T13:15:47;94950.94;;;6.17;37.23
10261;BME280;5175;42.606;23.388;2023-02-11T13:18:29;94950.94;;;5.99;37.36
10261;BME280;5175;42.606;23.388;2023-02-11T13:21:10;94953.56;;;6.35;37.39
10261;BME280;5175;42.606;23.388;2023-02-11T13:23:47;94946.72;;;6.87;38.23
10261;BME280;5175;42.606;23.388;2023-02-11T13:26:19;94946.88;;;7.04;35.97